createdAt,value
2019-05-02T00:00:47.068Z,11.67
2019-05-02T00:03:19.836Z,12.00
2019-05-02T00:05:51.903Z,10.45
2019-05-02T00:08:24.344Z,12.55
2019-05-02T00:10:56.595Z,12.10
2019-05-02T00:13:28.769Z,12.20
2019-05-02T00:16:01.389Z,12.25
2019-05-02T00:18:37.123Z,11.90
2019-05-02T00:21:07.595Z,11.73
2019-05-02T00:23:39.727Z,10.72
2019-05-02T00:26:12.099Z,13.08
2019-05-02T00:28:48.049Z,13.40
2019-05-02T00:31:19.448Z,12.60
2019-05-02T00:33:51.451Z,12.35
2019-05-02T00:36:23.704Z,12.30
2019-05-02T00:38:55.797Z,13.60
2019-05-02T00:41:33.143Z,13.65
2019-05-02T00:44:06.098Z,14.97
2019-05-02T00:46:36.313Z,15.20
2019-05-02T00:49:08.350Z,14.90
2019-05-02T00:51:43.655Z,14.07
2019-05-02T00:54:19.246Z,12.98
2019-05-02T00:56:49.555Z,12.78
2019-05-02T00:59:21.563Z,12.78
2019-05-02T01:02:11.116Z,13.58
2019-05-02T01:04:44.755Z,12.60
2019-05-02T01:07:20.479Z,13.18
2019-05-02T01:09:50.402Z,12.30
2019-05-02T01:12:26.660Z,12.93
2019-05-02T01:14:56.183Z,13.45
2019-05-02T01:17:30.930Z,11.80
2019-05-02T01:20:02.388Z,12.13
2019-05-02T01:22:35.466Z,13.85
2019-05-02T01:25:15.087Z,12.98
2019-05-02T01:27:46.654Z,12.70
2019-05-02T01:30:37.300Z,13.35
2019-05-02T01:33:30.685Z,12.93
2019-05-02T01:36:10.608Z,11.85
2019-05-02T01:38:46.137Z,13.65
2019-05-02T01:41:18.237Z,12.03
2019-05-02T01:43:50.265Z,12.85
2019-05-02T01:46:24.169Z,13.10
2019-05-02T01:48:56.433Z,12.00
2019-05-02T01:51:28.494Z,12.40
2019-05-02T01:54:04.862Z,13.90
2019-05-02T01:56:34.908Z,12.78
2019-05-02T01:59:07.068Z,12.28
2019-05-02T02:01:40.169Z,13.18
2019-05-02T02:04:16.132Z,11.70
2019-05-02T02:06:46.118Z,11.20
2019-05-02T02:09:18.225Z,10.85
2019-05-02T02:11:50.234Z,11.15
2019-05-02T02:14:22.305Z,11.18
2019-05-02T02:16:54.715Z,11.88
2019-05-02T02:19:39.094Z,11.48
2019-05-02T02:22:16.106Z,11.30
2019-05-02T02:24:55.904Z,12.47
2019-05-02T02:27:26.529Z,11.65
2019-05-02T02:29:58.738Z,10.65
2019-05-02T02:32:30.914Z,11.63
2019-05-02T02:35:03.585Z,11.15
2019-05-02T02:37:37.954Z,11.12
2019-05-02T02:40:10.664Z,11.45
2019-05-02T02:42:43.202Z,11.80
2019-05-02T02:45:34.495Z,12.25
2019-05-02T02:48:06.596Z,12.80
2019-05-02T02:50:43.041Z,11.45
2019-05-02T02:53:18.288Z,11.33
2019-05-02T02:55:46.680Z,11.20
2019-05-02T02:58:18.740Z,11.40
2019-05-02T03:00:50.792Z,13.32
2019-05-02T03:03:28.038Z,12.80
2019-05-02T03:05:58.745Z,11.78
2019-05-02T03:08:31.726Z,13.48
2019-05-02T03:11:03.866Z,12.50
2019-05-02T03:13:52.656Z,12.60
2019-05-02T03:16:19.117Z,11.00
2019-05-02T03:18:51.251Z,11.93
2019-05-02T03:21:23.447Z,11.55
2019-05-02T03:24:03.249Z,12.40
2019-05-02T03:26:29.262Z,13.72
2019-05-02T03:29:01.597Z,12.33
2019-05-02T03:31:33.709Z,12.63
2019-05-02T03:34:05.982Z,12.20
2019-05-02T03:36:37.974Z,11.48
2019-05-02T03:39:15.400Z,12.82
2019-05-02T03:41:44.207Z,11.78
2019-05-02T03:44:24.622Z,12.68
2019-05-02T03:46:54.237Z,13.00
2019-05-02T03:49:24.629Z,13.98
2019-05-02T03:52:02.841Z,12.98
2019-05-02T03:54:30.619Z,14.17
2019-05-02T03:57:02.874Z,12.20
2019-05-02T03:59:39.174Z,12.25
2019-05-02T04:02:13.906Z,12.00
2019-05-02T04:04:44.292Z,12.23
2019-05-02T04:07:16.806Z,11.95
2019-05-02T04:09:52.270Z,12.30
2019-05-02T04:12:24.350Z,11.73
2019-05-02T04:14:57.461Z,12.00
2019-05-02T04:17:35.325Z,12.00
2019-05-02T04:20:31.075Z,12.80
2019-05-02T04:23:09.685Z,12.03
2019-05-02T04:25:50.105Z,10.78
2019-05-02T04:28:27.292Z,12.50
2019-05-02T04:31:01.531Z,11.33
2019-05-02T04:33:36.235Z,11.45
2019-05-02T04:36:15.123Z,11.50
2019-05-02T04:38:47.719Z,12.53
2019-05-02T04:41:27.966Z,12.27
2019-05-02T04:43:57.723Z,13.20
2019-05-02T04:46:30.458Z,12.00
2019-05-02T04:49:01.249Z,12.17
2019-05-02T04:51:33.456Z,13.30
2019-05-02T04:54:09.403Z,10.70
2019-05-02T04:56:49.509Z,13.53
2019-05-02T04:59:19.891Z,12.65
2019-05-02T05:01:57.406Z,12.97
2019-05-02T05:04:24.411Z,10.50
2019-05-02T05:07:00.983Z,12.70
2019-05-02T05:09:33.436Z,11.70
2019-05-02T05:12:11.576Z,12.82
2019-05-02T05:14:47.471Z,12.25
2019-05-02T05:17:25.003Z,14.38
2019-05-02T05:20:10.540Z,12.15
2019-05-02T05:22:45.976Z,11.75
2019-05-02T05:25:28.775Z,12.90
2019-05-02T05:28:05.982Z,12.15
2019-05-02T05:30:45.045Z,13.90
2019-05-02T05:33:13.446Z,13.28
2019-05-02T05:35:48.829Z,12.70
2019-05-02T05:38:22.929Z,12.58
2019-05-02T05:40:58.086Z,12.45
2019-05-02T05:43:37.997Z,11.35
2019-05-02T05:46:13.276Z,12.10
2019-05-02T05:48:47.511Z,11.80
2019-05-02T05:51:20.788Z,12.95
2019-05-02T05:53:59.022Z,11.90
2019-05-02T05:56:28.100Z,12.30
2019-05-02T05:59:00.121Z,12.43
2019-05-02T06:01:34.834Z,11.80
2019-05-02T06:04:08.161Z,14.05
2019-05-02T06:06:41.405Z,12.95
2019-05-02T06:09:13.939Z,12.47
2019-05-02T06:11:46.147Z,11.30
2019-05-02T06:14:19.993Z,11.15
2019-05-02T06:16:53.273Z,12.15
2019-05-02T06:19:25.483Z,11.77
2019-05-02T06:21:57.945Z,11.90
2019-05-02T06:24:33.627Z,12.47
2019-05-02T06:27:07.879Z,12.00
2019-05-02T06:29:44.127Z,12.03
2019-05-02T06:32:19.473Z,12.60
2019-05-02T06:34:53.681Z,13.72
2019-05-02T06:37:25.960Z,13.88
2019-05-02T06:39:58.263Z,12.63
2019-05-02T06:42:32.695Z,12.65
2019-05-02T06:45:06.436Z,13.03
2019-05-02T06:47:41.841Z,12.18
2019-05-02T06:50:13.212Z,12.80
2019-05-02T06:52:47.380Z,13.30
2019-05-02T06:55:19.548Z,13.35
2019-05-02T06:57:51.959Z,12.65
2019-05-02T07:00:35.613Z,13.48
2019-05-02T07:02:58.966Z,13.20
2019-05-02T07:05:31.221Z,11.97
2019-05-02T07:08:06.681Z,13.10
2019-05-02T07:10:44.461Z,13.62
2019-05-02T07:13:14.932Z,14.00
2019-05-02T07:16:15.523Z,12.95
2019-05-02T07:18:49.641Z,13.80
2019-05-02T07:21:23.666Z,12.58
2019-05-02T07:23:57.670Z,13.90
2019-05-02T07:26:30.855Z,13.50
2019-05-02T07:29:02.905Z,13.87
2019-05-02T07:31:36.092Z,13.50
2019-05-02T07:34:12.819Z,14.20
2019-05-02T07:36:41.952Z,12.40
2019-05-02T07:39:14.045Z,14.53
2019-05-02T07:41:46.062Z,13.53
2019-05-02T07:44:18.164Z,13.55
2019-05-02T07:46:52.004Z,12.78
2019-05-02T07:49:26.802Z,12.63
2019-05-02T07:51:58.942Z,13.50
2019-05-02T07:54:31.373Z,13.60
2019-05-02T07:57:03.415Z,12.78
2019-05-02T07:59:35.421Z,13.07
2019-05-02T08:02:07.483Z,12.95
2019-05-02T08:04:43.575Z,11.40
2019-05-02T08:07:16.300Z,14.37
2019-05-02T08:09:47.173Z,13.53
2019-05-02T08:12:19.209Z,12.03
2019-05-02T08:14:51.454Z,13.55
2019-05-02T08:17:27.272Z,12.15
2019-05-02T08:19:57.357Z,13.75
2019-05-02T08:22:29.535Z,13.30
2019-05-02T08:25:01.657Z,14.35
2019-05-02T08:27:52.743Z,14.70
2019-05-02T08:30:28.495Z,14.90
2019-05-02T08:33:00.776Z,13.32
2019-05-02T08:35:33.059Z,14.33
2019-05-02T08:38:06.187Z,15.10
2019-05-02T08:40:42.328Z,15.45
2019-05-02T08:43:12.075Z,14.73
2019-05-02T08:45:44.432Z,13.70
2019-05-02T08:48:16.564Z,14.50
2019-05-02T08:50:48.469Z,13.13
2019-05-02T08:53:22.277Z,14.73
2019-05-02T08:55:54.615Z,15.05
2019-05-02T08:58:26.726Z,16.20
2019-05-02T09:00:58.899Z,15.18
2019-05-02T09:03:38.969Z,15.25
2019-05-02T09:06:06.216Z,14.53
2019-05-02T09:08:39.463Z,15.65
2019-05-02T09:11:14.319Z,15.90
2019-05-02T09:13:46.080Z,15.03
2019-05-02T09:16:23.621Z,15.18
2019-05-02T09:18:54.141Z,14.55
2019-05-02T09:21:26.630Z,16.32
2019-05-02T09:23:59.767Z,15.00
2019-05-02T09:26:36.146Z,15.53
2019-05-02T09:29:05.673Z,17.67
2019-05-02T09:31:42.160Z,16.97
2019-05-02T09:34:12.060Z,17.80
2019-05-02T09:36:43.940Z,15.85
2019-05-02T09:39:16.418Z,14.30
2019-05-02T09:41:48.525Z,14.95
2019-05-02T09:44:22.359Z,14.50
2019-05-02T09:46:57.043Z,17.30
2019-05-02T09:49:29.355Z,15.53
2019-05-02T09:52:03.287Z,17.00
2019-05-02T09:54:37.010Z,14.50
2019-05-02T09:57:08.848Z,14.90
2019-05-02T09:59:43.438Z,13.90
2019-05-02T10:02:14.841Z,14.20
2019-05-02T10:04:47.011Z,14.53
2019-05-02T10:07:19.384Z,12.82
2019-05-02T10:09:51.956Z,13.95
2019-05-02T10:12:23.961Z,13.32
2019-05-02T10:14:55.999Z,15.30
2019-05-02T10:17:29.070Z,13.78
2019-05-02T10:20:02.098Z,13.22
2019-05-02T10:22:39.458Z,12.43
2019-05-02T10:25:11.769Z,14.07
2019-05-02T10:27:47.451Z,13.62
2019-05-02T10:30:18.628Z,13.38
2019-05-02T10:32:52.927Z,14.50
2019-05-02T10:35:36.683Z,12.60
2019-05-02T10:38:02.490Z,11.38
2019-05-02T10:40:35.235Z,12.40
2019-05-02T10:43:07.512Z,12.30
2019-05-02T10:45:42.488Z,12.90
2019-05-02T10:48:24.755Z,13.28
2019-05-02T10:50:52.502Z,14.03
2019-05-02T10:53:24.742Z,14.63
2019-05-02T10:55:56.786Z,16.50
2019-05-02T10:58:32.001Z,14.60
2019-05-02T11:01:04.241Z,14.35
2019-05-02T11:03:43.727Z,13.60
2019-05-02T11:06:14.654Z,15.18
2019-05-02T11:08:46.785Z,15.85
2019-05-02T11:11:18.977Z,13.55
2019-05-02T11:14:18.717Z,14.23
2019-05-02T11:16:58.630Z,14.45
2019-05-02T11:19:45.170Z,15.28
2019-05-02T11:22:17.449Z,14.68
2019-05-02T11:24:49.600Z,14.23
2019-05-02T11:27:22.205Z,15.05
2019-05-02T11:29:54.301Z,14.28
2019-05-02T11:32:26.388Z,15.43
2019-05-02T11:34:58.445Z,14.35
2019-05-02T11:37:30.515Z,14.30
2019-05-02T11:40:06.011Z,14.23
2019-05-02T11:42:36.399Z,15.55
2019-05-02T11:45:08.813Z,15.35
2019-05-02T11:47:42.324Z,15.83
2019-05-02T11:50:14.806Z,14.35
2019-05-02T11:52:46.860Z,14.38
2019-05-02T11:55:23.354Z,15.93
2019-05-02T11:57:54.730Z,14.78
2019-05-02T12:00:27.785Z,16.62
2019-05-02T12:03:17.152Z,16.15
2019-05-02T12:05:49.257Z,15.45
2019-05-02T12:08:22.610Z,15.43
2019-05-02T12:10:54.701Z,15.90
2019-05-02T12:13:26.869Z,15.68
2019-05-02T12:15:58.971Z,14.10
2019-05-02T12:18:32.567Z,12.60
2019-05-02T12:21:04.803Z,13.28
2019-05-02T12:23:36.762Z,13.53
2019-05-02T12:26:09.153Z,13.05
2019-05-02T12:28:42.878Z,12.30
2019-05-02T12:31:32.531Z,11.68
2019-05-02T12:34:06.181Z,12.10
2019-05-02T12:36:38.345Z,10.78
2019-05-02T12:39:12.618Z,13.25
2019-05-02T12:41:44.986Z,12.35
2019-05-02T12:44:17.261Z,12.07
2019-05-02T12:46:49.446Z,12.15
2019-05-02T12:49:27.544Z,13.48
2019-05-02T12:51:55.724Z,11.12
2019-05-02T12:54:27.880Z,10.03
2019-05-02T12:57:01.973Z,10.55
2019-05-02T12:59:33.969Z,10.40
2019-05-02T13:02:09.523Z,9.88
2019-05-02T13:04:41.905Z,9.28
2019-05-02T13:07:14.438Z,8.80
2019-05-02T13:09:46.443Z,10.00
2019-05-02T13:12:26.599Z,9.23
2019-05-02T13:15:02.204Z,9.90
2019-05-02T13:17:43.960Z,8.80
2019-05-02T13:20:29.385Z,10.75
2019-05-02T13:23:34.075Z,10.38
2019-05-02T13:26:10.582Z,10.72
2019-05-02T13:28:47.388Z,9.95
2019-05-02T13:31:42.753Z,9.93
2019-05-02T13:35:22.160Z,9.90
2019-05-02T13:37:56.647Z,9.75
2019-05-02T13:40:35.548Z,10.00
2019-05-02T13:43:17.165Z,10.90
2019-05-02T13:46:16.980Z,9.40
2019-05-02T13:48:56.230Z,9.95
2019-05-02T13:51:38.931Z,8.80
2019-05-02T13:54:32.972Z,9.23
2019-05-02T13:57:12.681Z,9.60
2019-05-02T13:59:56.995Z,8.53
2019-05-02T14:02:39.897Z,11.50
2019-05-02T14:05:13.432Z,10.90
2019-05-02T14:07:57.098Z,10.43
2019-05-02T14:10:39.537Z,11.68
2019-05-02T14:13:13.326Z,10.90
2019-05-02T14:15:47.850Z,9.78
2019-05-02T14:18:28.148Z,9.15
2019-05-02T14:21:02.676Z,9.78
2019-05-02T14:24:23.447Z,9.20
2019-05-02T14:27:22.325Z,9.75
2019-05-02T14:30:02.566Z,10.98
2019-05-02T14:32:40.118Z,13.35
2019-05-02T14:35:35.821Z,12.18
2019-05-02T14:38:16.529Z,11.40
2019-05-02T14:41:21.762Z,13.35
2019-05-02T14:44:57.977Z,14.60
2019-05-02T14:51:33.060Z,13.68
2019-05-02T14:58:25.676Z,14.87
2019-05-02T15:06:05.603Z,13.85
2019-05-02T15:13:01.880Z,13.35
2019-05-02T15:16:02.466Z,12.35
2019-05-02T15:30:05.121Z,14.33
2019-05-02T15:42:22.736Z,8.75
2019-05-02T15:45:05.666Z,9.18
2019-05-02T15:47:41.730Z,10.63
2019-05-02T15:50:32.528Z,13.88
2019-05-02T15:53:25.311Z,12.58
2019-05-02T15:56:18.696Z,12.95
2019-05-02T15:58:46.428Z,9.70
2019-05-02T16:01:36.669Z,8.98
2019-05-02T16:04:25.767Z,8.03
2019-05-02T16:07:07.175Z,8.55
2019-05-02T16:09:34.645Z,7.25
2019-05-02T16:12:14.387Z,7.03
2019-05-02T16:14:52.772Z,5.87
2019-05-02T16:17:28.905Z,7.55
2019-05-02T16:20:13.430Z,6.37
2019-05-02T16:22:51.956Z,5.25
2019-05-02T16:25:32.034Z,5.67
2019-05-02T16:28:15.843Z,5.60
2019-05-02T16:30:49.952Z,6.58
2019-05-02T16:33:36.945Z,6.25
2019-05-02T16:36:19.209Z,6.80
2019-05-02T16:38:55.746Z,4.80
2019-05-02T16:41:33.832Z,5.55
2019-05-02T16:44:12.783Z,5.22
2019-05-02T16:46:48.248Z,5.95
2019-05-02T16:49:24.340Z,5.25
2019-05-02T16:51:57.471Z,4.95
2019-05-02T16:54:36.212Z,6.67
2019-05-02T16:57:04.569Z,6.47
2019-05-02T16:59:38.883Z,6.67
2019-05-02T17:02:17.363Z,7.85
2019-05-02T17:04:52.096Z,6.70
2019-05-02T17:07:34.815Z,7.17
2019-05-02T17:10:14.776Z,7.80
2019-05-02T17:12:47.258Z,8.20
2019-05-02T17:15:35.137Z,7.55
2019-05-02T17:18:12.774Z,8.08
2019-05-02T17:20:41.283Z,9.30
2019-05-02T17:23:13.275Z,8.35
2019-05-02T17:25:49.981Z,8.13
2019-05-02T17:28:24.567Z,8.53
2019-05-02T17:30:56.486Z,8.90
2019-05-02T17:33:32.309Z,9.35
2019-05-02T17:36:04.417Z,9.48
2019-05-02T17:38:36.606Z,9.45
2019-05-02T17:41:08.795Z,9.30
2019-05-02T17:43:42.227Z,9.45
2019-05-02T17:46:18.415Z,9.83
2019-05-02T17:48:52.762Z,8.58
2019-05-02T17:51:46.718Z,8.83
2019-05-02T17:54:26.191Z,9.63
2019-05-02T17:57:02.778Z,10.32
2019-05-02T17:59:37.657Z,10.45
2019-05-02T18:02:18.972Z,9.65
2019-05-02T18:05:02.787Z,9.98
2019-05-02T18:07:45.425Z,10.03
2019-05-02T18:10:26.843Z,10.85
2019-05-02T18:13:06.863Z,11.18
2019-05-02T18:15:47.496Z,12.05
2019-05-02T18:18:28.880Z,10.40
2019-05-02T18:21:02.235Z,11.05
2019-05-02T18:23:47.070Z,10.03
2019-05-02T18:26:22.530Z,11.10
2019-05-02T18:29:15.506Z,12.13
2019-05-02T18:31:55.120Z,11.38
2019-05-02T18:34:37.041Z,11.48
2019-05-02T18:37:09.621Z,12.73
2019-05-02T18:39:49.729Z,12.55
2019-05-02T18:42:31.893Z,13.43
2019-05-02T18:48:45.766Z,12.07
2019-05-02T18:51:21.803Z,12.93
2019-05-02T18:53:58.159Z,13.15
2019-05-02T18:56:28.000Z,13.55
2019-05-02T18:59:56.490Z,12.65
2019-05-02T19:02:42.517Z,12.50
2019-05-02T19:05:51.643Z,14.05
2019-05-02T19:08:49.820Z,11.97
2019-05-02T19:11:42.761Z,12.68
2019-05-02T19:14:28.823Z,13.20
2019-05-02T19:17:19.351Z,13.58
2019-05-02T19:20:01.429Z,12.80
2019-05-02T19:22:49.159Z,13.90
2019-05-02T19:25:24.726Z,13.40
2019-05-02T19:28:20.507Z,14.28
2019-05-02T19:31:08.883Z,13.00
2019-05-02T19:36:46.418Z,13.75
2019-05-02T19:39:24.313Z,13.85
2019-05-02T19:42:07.345Z,13.73
2019-05-02T19:44:46.986Z,13.10
2019-05-02T19:47:31.746Z,12.60
2019-05-02T19:50:16.004Z,14.73
2019-05-02T19:53:00.404Z,15.55
2019-05-02T19:55:24.640Z,16.37
2019-05-02T19:57:56.831Z,18.02
2019-05-02T20:00:31.871Z,18.12
2019-05-02T20:03:04.314Z,18.00
2019-05-02T20:05:36.894Z,21.05
2019-05-02T20:08:09.819Z,20.82
2019-05-02T20:10:42.413Z,20.82
2019-05-02T20:13:14.839Z,21.73
2019-05-02T20:15:57.171Z,22.52
2019-05-02T20:18:28.237Z,22.15
2019-05-02T20:21:23.485Z,23.20
2019-05-02T20:23:46.792Z,22.85
2019-05-02T20:26:19.283Z,23.62
2019-05-02T20:28:52.796Z,24.87
2019-05-02T20:31:25.731Z,23.83
2019-05-02T20:33:58.241Z,23.02
2019-05-02T20:36:32.080Z,22.05
2019-05-02T20:39:06.705Z,23.40
2019-05-02T20:41:39.444Z,27.25
2019-05-02T20:44:12.299Z,23.20
2019-05-02T20:46:44.801Z,25.20
2019-05-02T20:49:17.274Z,22.75
2019-05-02T20:51:51.692Z,24.60
2019-05-02T20:54:24.014Z,24.27
2019-05-02T20:56:56.769Z,24.00
2019-05-02T21:02:01.724Z,23.00
2019-05-02T21:04:34.199Z,25.15
2019-05-02T21:07:14.195Z,24.72
2019-05-02T21:10:01.978Z,26.50
2019-05-02T21:12:34.677Z,23.60
2019-05-02T21:15:07.915Z,25.35
2019-05-02T21:17:42.143Z,25.27
2019-05-02T21:20:15.310Z,25.32
2019-05-02T21:22:47.782Z,25.85
2019-05-02T21:25:20.403Z,25.57
2019-05-02T21:27:52.857Z,26.12
2019-05-02T21:30:28.698Z,25.80
2019-05-02T21:33:02.859Z,26.12
2019-05-02T21:35:35.191Z,26.60
2019-05-02T21:38:07.713Z,25.15
2019-05-02T21:40:41.963Z,25.05
2019-05-02T21:43:14.590Z,24.63
2019-05-02T21:45:47.574Z,27.17
2019-05-02T21:48:22.075Z,26.00
2019-05-02T21:51:02.551Z,24.52
2019-05-02T21:53:56.154Z,25.45
2019-05-02T21:56:29.236Z,25.10
2019-05-02T21:59:09.096Z,25.32
2019-05-02T22:01:51.967Z,25.60
2019-05-02T22:04:25.347Z,25.30
2019-05-02T22:06:58.011Z,25.17
2019-05-02T22:09:32.187Z,25.17
2019-05-02T22:12:04.571Z,27.73
2019-05-02T22:14:36.958Z,25.92
2019-05-02T22:17:09.389Z,24.02
2019-05-02T22:19:42.052Z,26.70
2019-05-02T22:22:14.619Z,27.10
2019-05-02T22:24:48.003Z,27.73
2019-05-02T22:27:23.082Z,24.92
2019-05-02T22:29:55.952Z,25.90
2019-05-02T22:32:28.603Z,27.67
2019-05-02T22:35:01.841Z,26.82
2019-05-02T22:37:34.525Z,24.77
2019-05-02T22:40:09.730Z,28.10
2019-05-02T22:42:42.459Z,24.75
2019-05-02T22:45:15.195Z,24.45
2019-05-02T22:47:47.596Z,25.30
2019-05-02T22:50:22.039Z,23.17
2019-05-02T22:52:54.113Z,24.77
2019-05-02T22:55:26.535Z,22.07
2019-05-02T22:57:59.041Z,24.18
2019-05-02T23:00:32.231Z,23.95
2019-05-02T23:03:04.681Z,23.47
2019-05-02T23:05:37.082Z,24.67
2019-05-02T23:08:09.562Z,21.85
2019-05-02T23:10:41.900Z,24.25
2019-05-02T23:13:14.230Z,23.07
2019-05-02T23:15:47.001Z,24.35
2019-05-02T23:18:19.398Z,22.73
2019-05-02T23:20:52.617Z,23.32
2019-05-02T23:23:25.199Z,21.75
2019-05-02T23:26:05.583Z,23.00
2019-05-02T23:28:39.758Z,23.67
2019-05-02T23:31:14.055Z,24.00
2019-05-02T23:33:58.531Z,23.52
2019-05-02T23:36:32.458Z,21.93
2019-05-02T23:39:07.518Z,24.12
2019-05-02T23:41:42.018Z,24.47
2019-05-02T23:44:14.535Z,24.65
2019-05-02T23:46:46.981Z,23.92
2019-05-02T23:49:19.417Z,22.65
2019-05-02T23:51:51.909Z,23.10
2019-05-02T23:54:24.305Z,23.52
2019-05-02T23:56:57.640Z,22.15
2019-05-02T23:59:31.766Z,22.60
